sensor_id;sensor_type;location;lat;lon;timestamp;P1;durP1;ratioP1;P2;durP2;ratioP2
85559;SDS011;76003;49.038;16.594;2024-01-30T00:02:18;34.65;;;15.20;;
85559;SDS011;76003;49.038;16.594;2024-01-30T00:04:58;33.15;;;16.65;;
85559;SDS011;76003;49.038;16.594;2024-01-30T00:07:24;29.33;;;16.42;;
85559;SDS011;76003;49.038;16.594;2024-01-30T00:10:10;36.92;;;16.42;;
85559;SDS011;76003;49.038;16.594;2024-01-30T00:12:51;30.85;;;17.00;;
85559;SDS011;76003;49.038;16.594;2024-01-30T00:15:33;29.90;;;16.05;;
85559;SDS011;76003;49.038;16.594;2024-01-30T00:18:13;31.35;;;17.60;;
85559;SDS011;76003;49.038;16.594;2024-01-30T00:23:35;20.15;;;11.70;;
85559;SDS011;76003;49.038;16.594;2024-01-30T00:26:16;24.58;;;12.35;;
85559;SDS011;76003;49.038;16.594;2024-01-30T00:31:22;24.08;;;12.38;;
85559;SDS011;76003;49.038;16.594;2024-01-30T00:34:20;20.67;;;11.88;;
85559;SDS011;76003;49.038;16.594;2024-01-30T00:36:45;30.08;;;14.60;;
85559;SDS011;76003;49.038;16.594;2024-01-30T00:39:32;22.55;;;12.30;;
85559;SDS011;76003;49.038;16.594;2024-01-30T00:42:05;31.08;;;14.30;;
85559;SDS011;76003;49.038;16.594;2024-01-30T00:44:52;31.15;;;17.15;;
85559;SDS011;76003;49.038;16.594;2024-01-30T00:47:32;34.95;;;15.55;;
85559;SDS011;76003;49.038;16.594;2024-01-30T00:49:58;32.95;;;15.68;;
85559;SDS011;76003;49.038;16.594;2024-01-30T00:53:40;26.35;;;13.35;;
85559;SDS011;76003;49.038;16.594;2024-01-30T00:57:07;23.75;;;12.45;;
85559;SDS011;76003;49.038;16.594;2024-01-30T01:00:32;27.40;;;12.88;;
85559;SDS011;76003;49.038;16.594;2024-01-30T01:03:58;29.27;;;13.95;;
85559;SDS011;76003;49.038;16.594;2024-01-30T01:07:23;25.88;;;11.77;;
85559;SDS011;76003;49.038;16.594;2024-01-30T01:10:49;23.98;;;12.38;;
85559;SDS011;76003;49.038;16.594;2024-01-30T01:13:14;30.00;;;16.30;;
85559;SDS011;76003;49.038;16.594;2024-01-30T01:16:01;35.13;;;17.80;;
85559;SDS011;76003;49.038;16.594;2024-01-30T01:18:27;30.55;;;17.60;;
85559;SDS011;76003;49.038;16.594;2024-01-30T01:21:13;31.23;;;15.77;;
85559;SDS011;76003;49.038;16.594;2024-01-30T01:23:39;36.05;;;17.23;;
85559;SDS011;76003;49.038;16.594;2024-01-30T01:26:25;28.58;;;16.58;;
85559;SDS011;76003;49.038;16.594;2024-01-30T01:29:06;33.50;;;16.10;;
85559;SDS011;76003;49.038;16.594;2024-01-30T01:31:51;34.50;;;16.33;;
85559;SDS011;76003;49.038;16.594;2024-01-30T01:34:32;29.63;;;14.43;;
85559;SDS011;76003;49.038;16.594;2024-01-30T01:37:15;26.13;;;15.43;;
85559;SDS011;76003;49.038;16.594;2024-01-30T01:39:55;37.65;;;16.67;;
85559;SDS011;76003;49.038;16.594;2024-01-30T01:42:21;36.22;;;16.48;;
85559;SDS011;76003;49.038;16.594;2024-01-30T01:46:03;19.92;;;12.43;;
85559;SDS011;76003;49.038;16.594;2024-01-30T01:48:30;25.83;;;13.40;;
85559;SDS011;76003;49.038;16.594;2024-01-30T01:51:16;26.42;;;13.63;;
85559;SDS011;76003;49.038;16.594;2024-01-30T01:53:42;25.10;;;13.15;;
85559;SDS011;76003;49.038;16.594;2024-01-30T01:56:29;29.40;;;17.27;;
85559;SDS011;76003;49.038;16.594;2024-01-30T01:58:56;27.80;;;13.02;;
85559;SDS011;76003;49.038;16.594;2024-01-30T02:04:43;19.30;;;9.85;;
85559;SDS011;76003;49.038;16.594;2024-01-30T02:07:24;21.20;;;13.23;;
85559;SDS011;76003;49.038;16.594;2024-01-30T02:10:05;28.15;;;11.07;;
85559;SDS011;76003;49.038;16.594;2024-01-30T02:12:49;24.70;;;14.98;;
85559;SDS011;76003;49.038;16.594;2024-01-30T02:17:56;26.95;;;15.45;;
85559;SDS011;76003;49.038;16.594;2024-01-30T02:21:38;33.45;;;16.00;;
85559;SDS011;76003;49.038;16.594;2024-01-30T02:24:04;34.00;;;15.80;;
85559;SDS011;76003;49.038;16.594;2024-01-30T02:29:17;28.25;;;13.88;;
85559;SDS011;76003;49.038;16.594;2024-01-30T02:32:04;33.13;;;13.77;;
85559;SDS011;76003;49.038;16.594;2024-01-30T02:34:31;30.20;;;14.25;;
85559;SDS011;76003;49.038;16.594;2024-01-30T02:37:17;32.95;;;13.60;;
85559;SDS011;76003;49.038;16.594;2024-01-30T02:39:43;24.45;;;13.40;;
85559;SDS011;76003;49.038;16.594;2024-01-30T02:42:08;27.55;;;13.32;;
85559;SDS011;76003;49.038;16.594;2024-01-30T02:44:33;24.92;;;12.68;;
85559;SDS011;76003;49.038;16.594;2024-01-30T02:46:59;29.10;;;14.73;;
85559;SDS011;76003;49.038;16.594;2024-01-30T02:49:24;24.83;;;13.75;;
85559;SDS011;76003;49.038;16.594;2024-01-30T02:51:50;33.03;;;15.15;;
85559;SDS011;76003;49.038;16.594;2024-01-30T02:54:32;30.10;;;14.95;;
85559;SDS011;76003;49.038;16.594;2024-01-30T02:57:12;35.80;;;18.80;;
85559;SDS011;76003;49.038;16.594;2024-01-30T02:59:38;31.42;;;16.77;;
85559;SDS011;76003;49.038;16.594;2024-01-30T03:02:24;23.98;;;14.35;;
85559;SDS011;76003;49.038;16.594;2024-01-30T03:05:05;32.30;;;16.55;;
85559;SDS011;76003;49.038;16.594;2024-01-30T03:10:25;31.73;;;17.20;;
85559;SDS011;76003;49.038;16.594;2024-01-30T03:13:12;28.77;;;14.60;;
85559;SDS011;76003;49.038;16.594;2024-01-30T03:15:39;31.02;;;16.45;;
85559;SDS011;76003;49.038;16.594;2024-01-30T03:18:26;29.15;;;14.23;;
85559;SDS011;76003;49.038;16.594;2024-01-30T03:21:51;31.88;;;15.50;;
85559;SDS011;76003;49.038;16.594;2024-01-30T03:25:16;25.92;;;14.00;;
85559;SDS011;76003;49.038;16.594;2024-01-30T03:28:42;26.63;;;12.70;;
85559;SDS011;76003;49.038;16.594;2024-01-30T03:32:07;25.65;;;14.48;;
85559;SDS011;76003;49.038;16.594;2024-01-30T03:34:33;28.17;;;12.23;;
85559;SDS011;76003;49.038;16.594;2024-01-30T03:37:19;23.65;;;12.45;;
85559;SDS011;76003;49.038;16.594;2024-01-30T03:40:01;29.40;;;14.40;;
85559;SDS011;76003;49.038;16.594;2024-01-30T03:42:42;24.85;;;13.52;;
85559;SDS011;76003;49.038;16.594;2024-01-30T03:45:08;27.17;;;13.35;;
85559;SDS011;76003;49.038;16.594;2024-01-30T03:47:55;25.35;;;14.02;;
85559;SDS011;76003;49.038;16.594;2024-01-30T03:50:22;27.83;;;13.60;;
85559;SDS011;76003;49.038;16.594;2024-01-30T03:53:08;25.30;;;12.60;;
85559;SDS011;76003;49.038;16.594;2024-01-30T03:55:49;20.08;;;10.93;;
85559;SDS011;76003;49.038;16.594;2024-01-30T03:58:29;25.38;;;13.48;;
85559;SDS011;76003;49.038;16.594;2024-01-30T04:01:16;29.73;;;14.02;;
85559;SDS011;76003;49.038;16.594;2024-01-30T04:03:56;27.33;;;13.30;;
85559;SDS011;76003;49.038;16.594;2024-01-30T04:06:37;26.55;;;11.27;;
85559;SDS011;76003;49.038;16.594;2024-01-30T04:09:18;25.33;;;13.05;;
85559;SDS011;76003;49.038;16.594;2024-01-30T04:11:58;25.33;;;12.85;;
85559;SDS011;76003;49.038;16.594;2024-01-30T04:14:24;25.17;;;13.40;;
85559;SDS011;76003;49.038;16.594;2024-01-30T04:17:11;26.17;;;16.23;;
85559;SDS011;76003;49.038;16.594;2024-01-30T04:19:51;33.22;;;15.05;;
85559;SDS011;76003;49.038;16.594;2024-01-30T04:22:17;35.03;;;15.70;;
85559;SDS011;76003;49.038;16.594;2024-01-30T04:25:03;44.75;;;19.52;;
85559;SDS011;76003;49.038;16.594;2024-01-30T04:27:29;25.30;;;14.95;;
85559;SDS011;76003;49.038;16.594;2024-01-30T04:30:16;23.00;;;12.82;;
85559;SDS011;76003;49.038;16.594;2024-01-30T04:32:56;29.15;;;16.50;;
85559;SDS011;76003;49.038;16.594;2024-01-30T04:35:37;23.65;;;12.40;;
85559;SDS011;76003;49.038;16.594;2024-01-30T04:40:58;21.52;;;9.32;;
85559;SDS011;76003;49.038;16.594;2024-01-30T04:43:39;24.35;;;12.50;;
85559;SDS011;76003;49.038;16.594;2024-01-30T04:46:19;22.98;;;11.40;;
85559;SDS011;76003;49.038;16.594;2024-01-30T04:49:00;20.75;;;12.68;;
85559;SDS011;76003;49.038;16.594;2024-01-30T04:51:26;24.02;;;13.20;;
85559;SDS011;76003;49.038;16.594;2024-01-30T04:54:12;27.83;;;13.15;;
85559;SDS011;76003;49.038;16.594;2024-01-30T04:56:38;25.25;;;13.50;;
85559;SDS011;76003;49.038;16.594;2024-01-30T04:59:25;33.17;;;12.85;;
85559;SDS011;76003;49.038;16.594;2024-01-30T05:02:06;22.13;;;12.23;;
85559;SDS011;76003;49.038;16.594;2024-01-30T05:07:15;20.88;;;10.80;;
85559;SDS011;76003;49.038;16.594;2024-01-30T05:10:01;28.63;;;14.70;;
85559;SDS011;76003;49.038;16.594;2024-01-30T05:12:42;23.70;;;9.68;;
85559;SDS011;76003;49.038;16.594;2024-01-30T05:15:22;26.10;;;14.45;;
85559;SDS011;76003;49.038;16.594;2024-01-30T05:18:03;30.40;;;14.82;;
85559;SDS011;76003;49.038;16.594;2024-01-30T05:20:29;25.73;;;13.57;;
85559;SDS011;76003;49.038;16.594;2024-01-30T05:22:54;26.08;;;14.73;;
85559;SDS011;76003;49.038;16.594;2024-01-30T05:25:35;27.35;;;14.05;;
85559;SDS011;76003;49.038;16.594;2024-01-30T05:28:01;28.83;;;15.73;;
85559;SDS011;76003;49.038;16.594;2024-01-30T05:30:47;30.90;;;14.45;;
85559;SDS011;76003;49.038;16.594;2024-01-30T05:33:13;30.73;;;16.95;;
85559;SDS011;76003;49.038;16.594;2024-01-30T05:35:59;23.65;;;13.30;;
85559;SDS011;76003;49.038;16.594;2024-01-30T05:38:40;26.50;;;14.32;;
85559;SDS011;76003;49.038;16.594;2024-01-30T05:41:48;27.27;;;15.80;;
85559;SDS011;76003;49.038;16.594;2024-01-30T05:44:14;32.22;;;15.63;;
85559;SDS011;76003;49.038;16.594;2024-01-30T05:47:00;27.63;;;15.65;;
85559;SDS011;76003;49.038;16.594;2024-01-30T05:49:41;26.17;;;13.93;;
85559;SDS011;76003;49.038;16.594;2024-01-30T05:52:07;25.55;;;14.57;;
85559;SDS011;76003;49.038;16.594;2024-01-30T05:55:49;26.90;;;15.77;;
85559;SDS011;76003;49.038;16.594;2024-01-30T05:59:15;30.42;;;15.07;;
85559;SDS011;76003;49.038;16.594;2024-01-30T06:02:40;29.02;;;15.57;;
85559;SDS011;76003;49.038;16.594;2024-01-30T06:05:06;24.02;;;13.60;;
85559;SDS011;76003;49.038;16.594;2024-01-30T06:08:03;26.48;;;12.55;;
85559;SDS011;76003;49.038;16.594;2024-01-30T06:10:29;24.90;;;13.05;;
85559;SDS011;76003;49.038;16.594;2024-01-30T06:13:32;30.08;;;15.23;;
85559;SDS011;76003;49.038;16.594;2024-01-30T06:16:58;27.17;;;14.70;;
85559;SDS011;76003;49.038;16.594;2024-01-30T06:19:24;26.50;;;14.30;;
85559;SDS011;76003;49.038;16.594;2024-01-30T06:22:11;25.85;;;14.18;;
85559;SDS011;76003;49.038;16.594;2024-01-30T06:25:36;23.75;;;14.13;;
85559;SDS011;76003;49.038;16.594;2024-01-30T06:28:02;27.35;;;15.65;;
85559;SDS011;76003;49.038;16.594;2024-01-30T06:31:05;23.48;;;12.75;;
85559;SDS011;76003;49.038;16.594;2024-01-30T06:34:30;25.73;;;12.35;;
85559;SDS011;76003;49.038;16.594;2024-01-30T06:37:56;28.20;;;14.25;;
85559;SDS011;76003;49.038;16.594;2024-01-30T06:40:22;24.25;;;10.45;;
85559;SDS011;76003;49.038;16.594;2024-01-30T06:43:25;25.75;;;12.95;;
85559;SDS011;76003;49.038;16.594;2024-01-30T06:45:51;30.33;;;14.18;;
85559;SDS011;76003;49.038;16.594;2024-01-30T06:49:33;26.52;;;11.98;;
85559;SDS011;76003;49.038;16.594;2024-01-30T06:52:00;30.15;;;15.63;;
85559;SDS011;76003;49.038;16.594;2024-01-30T06:54:46;20.90;;;14.50;;
85559;SDS011;76003;49.038;16.594;2024-01-30T06:57:27;21.95;;;10.98;;
85559;SDS011;76003;49.038;16.594;2024-01-30T06:59:56;18.63;;;11.05;;
85559;SDS011;76003;49.038;16.594;2024-01-30T07:02:48;23.95;;;15.45;;
85559;SDS011;76003;49.038;16.594;2024-01-30T07:05:14;23.88;;;12.95;;
85559;SDS011;76003;49.038;16.594;2024-01-30T07:08:57;21.23;;;11.75;;
85559;SDS011;76003;49.038;16.594;2024-01-30T07:12:23;21.02;;;10.90;;
85559;SDS011;76003;49.038;16.594;2024-01-30T07:15:09;20.80;;;11.10;;
85559;SDS011;76003;49.038;16.594;2024-01-30T07:17:35;19.17;;;12.10;;
85559;SDS011;76003;49.038;16.594;2024-01-30T07:20:22;22.70;;;13.25;;
85559;SDS011;76003;49.038;16.594;2024-01-30T07:23:02;21.60;;;12.23;;
85559;SDS011;76003;49.038;16.594;2024-01-30T07:25:44;20.73;;;12.07;;
85559;SDS011;76003;49.038;16.594;2024-01-30T07:28:10;23.65;;;12.63;;
85559;SDS011;76003;49.038;16.594;2024-01-30T07:31:14;19.70;;;11.75;;
85559;SDS011;76003;49.038;16.594;2024-01-30T07:33:40;20.65;;;11.30;;
85559;SDS011;76003;49.038;16.594;2024-01-30T07:36:26;18.25;;;10.90;;
85559;SDS011;76003;49.038;16.594;2024-01-30T07:38:52;20.40;;;13.15;;
85559;SDS011;76003;49.038;16.594;2024-01-30T07:42:35;24.20;;;14.70;;
85559;SDS011;76003;49.038;16.594;2024-01-30T07:45:18;18.38;;;11.43;;
85559;SDS011;76003;49.038;16.594;2024-01-30T07:47:50;20.70;;;12.27;;
85559;SDS011;76003;49.038;16.594;2024-01-30T07:50:37;21.90;;;11.70;;
85559;SDS011;76003;49.038;16.594;2024-01-30T07:53:03;20.40;;;12.25;;
85559;SDS011;76003;49.038;16.594;2024-01-30T07:55:52;19.77;;;11.52;;
85559;SDS011;76003;49.038;16.594;2024-01-30T07:58:24;19.52;;;12.27;;
85559;SDS011;76003;49.038;16.594;2024-01-30T08:01:14;18.80;;;11.60;;
85559;SDS011;76003;49.038;16.594;2024-01-30T08:03:55;17.40;;;11.15;;
85559;SDS011;76003;49.038;16.594;2024-01-30T08:06:35;18.42;;;12.23;;
85559;SDS011;76003;49.038;16.594;2024-01-30T08:09:16;19.65;;;11.75;;
85559;SDS011;76003;49.038;16.594;2024-01-30T08:11:56;18.13;;;12.02;;
85559;SDS011;76003;49.038;16.594;2024-01-30T08:14:36;18.80;;;11.25;;
85559;SDS011;76003;49.038;16.594;2024-01-30T08:17:17;17.63;;;11.85;;
85559;SDS011;76003;49.038;16.594;2024-01-30T08:19:57;13.48;;;10.10;;
85559;SDS011;76003;49.038;16.594;2024-01-30T08:22:38;18.33;;;11.40;;
85559;SDS011;76003;49.038;16.594;2024-01-30T08:25:20;16.40;;;9.98;;
85559;SDS011;76003;49.038;16.594;2024-01-30T08:27:47;15.57;;;10.07;;
85559;SDS011;76003;49.038;16.594;2024-01-30T08:30:34;15.02;;;9.18;;
85559;SDS011;76003;49.038;16.594;2024-01-30T08:33:01;16.48;;;9.77;;
85559;SDS011;76003;49.038;16.594;2024-01-30T08:35:47;14.50;;;9.82;;
85559;SDS011;76003;49.038;16.594;2024-01-30T08:38:13;15.57;;;9.93;;
85559;SDS011;76003;49.038;16.594;2024-01-30T08:41:16;17.35;;;11.05;;
85559;SDS011;76003;49.038;16.594;2024-01-30T08:43:56;17.05;;;10.10;;
85559;SDS011;76003;49.038;16.594;2024-01-30T08:46:36;15.75;;;9.80;;
85559;SDS011;76003;49.038;16.594;2024-01-30T08:49:03;13.80;;;9.80;;
85559;SDS011;76003;49.038;16.594;2024-01-30T08:52:47;12.20;;;8.00;;
85559;SDS011;76003;49.038;16.594;2024-01-30T08:56:13;13.27;;;9.68;;
85559;SDS011;76003;49.038;16.594;2024-01-30T08:59:38;12.85;;;8.45;;
85559;SDS011;76003;49.038;16.594;2024-01-30T09:02:32;14.07;;;8.88;;
85559;SDS011;76003;49.038;16.594;2024-01-30T09:04:58;13.77;;;8.57;;
85559;SDS011;76003;49.038;16.594;2024-01-30T09:07:45;11.27;;;8.77;;
85559;SDS011;76003;49.038;16.594;2024-01-30T09:10:11;11.35;;;8.20;;
85559;SDS011;76003;49.038;16.594;2024-01-30T09:13:13;14.55;;;9.07;;
85559;SDS011;76003;49.038;16.594;2024-01-30T09:15:40;12.52;;;8.98;;
85559;SDS011;76003;49.038;16.594;2024-01-30T09:18:42;16.17;;;9.15;;
85559;SDS011;76003;49.038;16.594;2024-01-30T09:21:09;13.70;;;9.60;;
85559;SDS011;76003;49.038;16.594;2024-01-30T09:24:06;16.38;;;9.38;;
85559;SDS011;76003;49.038;16.594;2024-01-30T09:26:54;12.82;;;8.93;;
85559;SDS011;76003;49.038;16.594;2024-01-30T09:29:19;15.60;;;9.00;;
85559;SDS011;76003;49.038;16.594;2024-01-30T09:31:45;15.98;;;10.13;;
85559;SDS011;76003;49.038;16.594;2024-01-30T09:34:11;13.57;;;8.65;;
85559;SDS011;76003;49.038;16.594;2024-01-30T09:36:52;16.58;;;10.75;;
85559;SDS011;76003;49.038;16.594;2024-01-30T09:39:17;12.88;;;7.90;;
85559;SDS011;76003;49.038;16.594;2024-01-30T09:41:48;13.90;;;9.10;;
85559;SDS011;76003;49.038;16.594;2024-01-30T09:44:39;15.23;;;9.18;;
85559;SDS011;76003;49.038;16.594;2024-01-30T09:47:09;16.08;;;9.10;;
85559;SDS011;76003;49.038;16.594;2024-01-30T09:50:24;15.45;;;9.63;;
85559;SDS011;76003;49.038;16.594;2024-01-30T09:53:04;11.80;;;8.05;;
85559;SDS011;76003;49.038;16.594;2024-01-30T09:55:47;16.10;;;8.82;;
85559;SDS011;76003;49.038;16.594;2024-01-30T09:58:16;13.90;;;8.38;;
85559;SDS011;76003;49.038;16.594;2024-01-30T10:03:28;11.30;;;7.95;;
85559;SDS011;76003;49.038;16.594;2024-01-30T10:07:10;13.52;;;8.85;;
85559;SDS011;76003;49.038;16.594;2024-01-30T10:09:53;14.20;;;9.27;;
85559;SDS011;76003;49.038;16.594;2024-01-30T10:12:34;16.67;;;9.82;;
85559;SDS011;76003;49.038;16.594;2024-01-30T10:15:15;14.35;;;9.38;;
85559;SDS011;76003;49.038;16.594;2024-01-30T10:18:00;14.10;;;8.43;;
85559;SDS011;76003;49.038;16.594;2024-01-30T10:20:41;13.70;;;9.05;;
85559;SDS011;76003;49.038;16.594;2024-01-30T10:23:07;15.25;;;9.05;;
85559;SDS011;76003;49.038;16.594;2024-01-30T10:25:54;13.95;;;8.98;;
85559;SDS011;76003;49.038;16.594;2024-01-30T10:28:22;12.35;;;9.52;;
85559;SDS011;76003;49.038;16.594;2024-01-30T10:31:08;13.23;;;8.65;;
85559;SDS011;76003;49.038;16.594;2024-01-30T10:33:35;13.93;;;8.85;;
85559;SDS011;76003;49.038;16.594;2024-01-30T10:37:17;13.68;;;8.55;;
85559;SDS011;76003;49.038;16.594;2024-01-30T10:39:44;13.20;;;7.97;;
85559;SDS011;76003;49.038;16.594;2024-01-30T10:42:48;15.13;;;9.23;;
85559;SDS011;76003;49.038;16.594;2024-01-30T10:45:18;18.15;;;10.20;;
85559;SDS011;76003;49.038;16.594;2024-01-30T10:48:44;15.77;;;9.00;;
85559;SDS011;76003;49.038;16.594;2024-01-30T10:52:15;13.27;;;10.05;;
85559;SDS011;76003;49.038;16.594;2024-01-30T10:55:42;13.45;;;8.90;;
85559;SDS011;76003;49.038;16.594;2024-01-30T10:58:08;15.68;;;9.07;;
85559;SDS011;76003;49.038;16.594;2024-01-30T11:00:57;10.45;;;8.65;;
85559;SDS011;76003;49.038;16.594;2024-01-30T11:03:24;12.77;;;9.68;;
85559;SDS011;76003;49.038;16.594;2024-01-30T11:08:40;13.27;;;8.93;;
85559;SDS011;76003;49.038;16.594;2024-01-30T11:12:25;17.50;;;8.07;;
85559;SDS011;76003;49.038;16.594;2024-01-30T11:17:54;16.20;;;8.57;;
85559;SDS011;76003;49.038;16.594;2024-01-30T11:20:40;13.65;;;10.55;;
85559;SDS011;76003;49.038;16.594;2024-01-30T11:23:21;12.02;;;10.68;;
85559;SDS011;76003;49.038;16.594;2024-01-30T11:26:12;15.13;;;10.48;;
85559;SDS011;76003;49.038;16.594;2024-01-30T11:28:38;11.02;;;7.43;;
85559;SDS011;76003;49.038;16.594;2024-01-30T11:31:25;14.20;;;10.52;;
85559;SDS011;76003;49.038;16.594;2024-01-30T11:33:55;13.30;;;10.73;;
85559;SDS011;76003;49.038;16.594;2024-01-30T11:36:42;11.60;;;9.02;;
85559;SDS011;76003;49.038;16.594;2024-01-30T11:39:11;14.07;;;9.98;;
85559;SDS011;76003;49.038;16.594;2024-01-30T11:43:01;12.82;;;7.68;;
85559;SDS011;76003;49.038;16.594;2024-01-30T11:46:27;16.25;;;10.60;;
85559;SDS011;76003;49.038;16.594;2024-01-30T11:49:53;15.30;;;9.63;;
85559;SDS011;76003;49.038;16.594;2024-01-30T11:53:19;15.38;;;8.13;;
85559;SDS011;76003;49.038;16.594;2024-01-30T11:56:45;13.70;;;8.75;;
85559;SDS011;76003;49.038;16.594;2024-01-30T11:59:11;13.32;;;8.95;;
85559;SDS011;76003;49.038;16.594;2024-01-30T12:01:58;18.30;;;9.95;;
85559;SDS011;76003;49.038;16.594;2024-01-30T12:04:27;15.95;;;8.90;;
85559;SDS011;76003;49.038;16.594;2024-01-30T12:07:15;12.65;;;6.18;;
85559;SDS011;76003;49.038;16.594;2024-01-30T12:09:42;9.52;;;6.28;;
85559;SDS011;76003;49.038;16.594;2024-01-30T12:12:28;9.43;;;5.72;;
85559;SDS011;76003;49.038;16.594;2024-01-30T12:15:10;10.90;;;6.50;;
85559;SDS011;76003;49.038;16.594;2024-01-30T12:17:51;12.35;;;6.10;;
85559;SDS011;76003;49.038;16.594;2024-01-30T12:22:57;9.05;;;6.72;;
85559;SDS011;76003;49.038;16.594;2024-01-30T12:25:38;10.60;;;6.53;;
85559;SDS011;76003;49.038;16.594;2024-01-30T12:28:04;8.30;;;5.35;;
85559;SDS011;76003;49.038;16.594;2024-01-30T12:30:46;7.07;;;4.85;;
85559;SDS011;76003;49.038;16.594;2024-01-30T12:33:27;10.50;;;5.00;;
85559;SDS011;76003;49.038;16.594;2024-01-30T12:36:08;10.10;;;6.05;;
85559;SDS011;76003;49.038;16.594;2024-01-30T12:38:49;9.07;;;6.63;;
85559;SDS011;76003;49.038;16.594;2024-01-30T12:41:16;8.85;;;5.05;;
85559;SDS011;76003;49.038;16.594;2024-01-30T12:44:03;11.43;;;6.72;;
85559;SDS011;76003;49.038;16.594;2024-01-30T12:46:29;15.30;;;7.60;;
85559;SDS011;76003;49.038;16.594;2024-01-30T12:49:15;9.52;;;6.57;;
85559;SDS011;76003;49.038;16.594;2024-01-30T12:51:41;13.05;;;6.20;;
85559;SDS011;76003;49.038;16.594;2024-01-30T12:54:44;11.55;;;5.93;;
85559;SDS011;76003;49.038;16.594;2024-01-30T12:57:24;10.43;;;6.22;;
85559;SDS011;76003;49.038;16.594;2024-01-30T13:00:05;13.77;;;6.22;;
85559;SDS011;76003;49.038;16.594;2024-01-30T13:03:01;7.63;;;5.30;;
85559;SDS011;76003;49.038;16.594;2024-01-30T13:05:42;12.80;;;6.28;;
85559;SDS011;76003;49.038;16.594;2024-01-30T13:11:03;9.52;;;4.22;;
85559;SDS011;76003;49.038;16.594;2024-01-30T13:13:44;10.65;;;6.00;;
85559;SDS011;76003;49.038;16.594;2024-01-30T13:16:24;10.82;;;5.88;;
85559;SDS011;76003;49.038;16.594;2024-01-30T13:21:31;10.02;;;6.28;;
85559;SDS011;76003;49.038;16.594;2024-01-30T13:24:18;11.40;;;6.45;;
85559;SDS011;76003;49.038;16.594;2024-01-30T13:26:46;13.52;;;7.57;;
85559;SDS011;76003;49.038;16.594;2024-01-30T13:29:33;12.18;;;7.65;;
85559;SDS011;76003;49.038;16.594;2024-01-30T13:31:59;9.57;;;6.38;;
85559;SDS011;76003;49.038;16.594;2024-01-30T13:34:45;17.95;;;9.13;;
85559;SDS011;76003;49.038;16.594;2024-01-30T13:37:25;11.30;;;7.30;;
85559;SDS011;76003;49.038;16.594;2024-01-30T13:40:06;10.52;;;7.40;;
85559;SDS011;76003;49.038;16.594;2024-01-30T13:42:47;11.82;;;7.72;;
85559;SDS011;76003;49.038;16.594;2024-01-30T13:45:28;18.27;;;9.38;;
85559;SDS011;76003;49.038;16.594;2024-01-30T13:50:34;9.75;;;5.30;;
85559;SDS011;76003;49.038;16.594;2024-01-30T13:53:15;14.15;;;7.80;;
85559;SDS011;76003;49.038;16.594;2024-01-30T13:58:22;6.75;;;5.80;;
85559;SDS011;76003;49.038;16.594;2024-01-30T14:01:08;12.77;;;7.85;;
85559;SDS011;76003;49.038;16.594;2024-01-30T14:03:35;12.65;;;8.48;;
85559;SDS011;76003;49.038;16.594;2024-01-30T14:06:21;15.65;;;10.65;;
85559;SDS011;76003;49.038;16.594;2024-01-30T14:08:47;10.32;;;5.60;;
85559;SDS011;76003;49.038;16.594;2024-01-30T14:11:34;10.82;;;6.50;;
85559;SDS011;76003;49.038;16.594;2024-01-30T14:14:14;11.02;;;5.90;;
85559;SDS011;76003;49.038;16.594;2024-01-30T14:16:55;9.77;;;6.55;;
85559;SDS011;76003;49.038;16.594;2024-01-30T14:19:35;11.23;;;5.88;;
85559;SDS011;76003;49.038;16.594;2024-01-30T14:22:16;14.32;;;7.22;;
85559;SDS011;76003;49.038;16.594;2024-01-30T14:24:57;11.27;;;5.88;;
85559;SDS011;76003;49.038;16.594;2024-01-30T14:30:18;13.68;;;8.00;;
85559;SDS011;76003;49.038;16.594;2024-01-30T14:32:59;11.27;;;7.88;;
85559;SDS011;76003;49.038;16.594;2024-01-30T14:38:20;16.60;;;8.90;;
85559;SDS011;76003;49.038;16.594;2024-01-30T14:41:06;15.57;;;6.82;;
85559;SDS011;76003;49.038;16.594;2024-01-30T14:43:32;12.18;;;7.70;;
85559;SDS011;76003;49.038;16.594;2024-01-30T14:46:18;11.00;;;8.05;;
85559;SDS011;76003;49.038;16.594;2024-01-30T14:48:44;12.00;;;7.00;;
85559;SDS011;76003;49.038;16.594;2024-01-30T14:51:31;17.02;;;9.27;;
85559;SDS011;76003;49.038;16.594;2024-01-30T14:54:13;12.35;;;6.40;;
85559;SDS011;76003;49.038;16.594;2024-01-30T14:56:53;15.65;;;6.97;;
85559;SDS011;76003;49.038;16.594;2024-01-30T14:59:34;9.90;;;6.10;;
85559;SDS011;76003;49.038;16.594;2024-01-30T15:02:00;12.82;;;6.03;;
85559;SDS011;76003;49.038;16.594;2024-01-30T15:04:41;20.50;;;7.82;;
85559;SDS011;76003;49.038;16.594;2024-01-30T15:07:07;10.02;;;5.30;;
85559;SDS011;76003;49.038;16.594;2024-01-30T15:09:32;11.30;;;6.05;;
85559;SDS011;76003;49.038;16.594;2024-01-30T15:11:57;13.40;;;7.07;;
85559;SDS011;76003;49.038;16.594;2024-01-30T15:14:24;9.65;;;5.57;;
85559;SDS011;76003;49.038;16.594;2024-01-30T15:18:06;10.18;;;6.20;;
85559;SDS011;76003;49.038;16.594;2024-01-30T15:20:51;11.88;;;6.22;;
85559;SDS011;76003;49.038;16.594;2024-01-30T15:23:28;11.35;;;7.95;;
85559;SDS011;76003;49.038;16.594;2024-01-30T15:26:14;12.82;;;5.85;;
85559;SDS011;76003;49.038;16.594;2024-01-30T15:28:40;12.25;;;8.15;;
85559;SDS011;76003;49.038;16.594;2024-01-30T15:31:27;9.07;;;5.10;;
85559;SDS011;76003;49.038;16.594;2024-01-30T15:34:08;17.90;;;7.43;;
85559;SDS011;76003;49.038;16.594;2024-01-30T15:36:44;14.98;;;7.43;;
85559;SDS011;76003;49.038;16.594;2024-01-30T15:39:30;12.93;;;7.35;;
85559;SDS011;76003;49.038;16.594;2024-01-30T15:41:55;13.93;;;7.10;;
85559;SDS011;76003;49.038;16.594;2024-01-30T15:44:36;12.82;;;7.07;;
85559;SDS011;76003;49.038;16.594;2024-01-30T15:47:18;14.02;;;6.85;;
85559;SDS011;76003;49.038;16.594;2024-01-30T15:49:58;14.50;;;8.65;;
85559;SDS011;76003;49.038;16.594;2024-01-30T15:52:39;14.27;;;7.72;;
85559;SDS011;76003;49.038;16.594;2024-01-30T15:55:19;13.57;;;6.72;;
85559;SDS011;76003;49.038;16.594;2024-01-30T15:58:00;8.20;;;5.65;;
85559;SDS011;76003;49.038;16.594;2024-01-30T16:00:40;13.05;;;8.20;;
85559;SDS011;76003;49.038;16.594;2024-01-30T16:03:21;13.48;;;8.13;;
85559;SDS011;76003;49.038;16.594;2024-01-30T16:05:47;11.77;;;6.45;;
85559;SDS011;76003;49.038;16.594;2024-01-30T16:08:33;16.17;;;7.00;;
85559;SDS011;76003;49.038;16.594;2024-01-30T16:10:59;16.33;;;7.70;;
85559;SDS011;76003;49.038;16.594;2024-01-30T16:13:45;15.63;;;7.88;;
85559;SDS011;76003;49.038;16.594;2024-01-30T16:16:12;12.18;;;8.15;;
85559;SDS011;76003;49.038;16.594;2024-01-30T16:18:58;15.10;;;8.50;;
85559;SDS011;76003;49.038;16.594;2024-01-30T16:21:39;15.68;;;8.13;;
85559;SDS011;76003;49.038;16.594;2024-01-30T16:24:23;21.08;;;8.73;;
85559;SDS011;76003;49.038;16.594;2024-01-30T16:27:04;13.82;;;8.88;;
85559;SDS011;76003;49.038;16.594;2024-01-30T16:29:45;19.00;;;7.15;;
85559;SDS011;76003;49.038;16.594;2024-01-30T16:32:25;14.38;;;7.32;;
85559;SDS011;76003;49.038;16.594;2024-01-30T16:35:06;11.57;;;8.13;;
85559;SDS011;76003;49.038;16.594;2024-01-30T16:37:46;15.07;;;9.43;;
85559;SDS011;76003;49.038;16.594;2024-01-30T16:40:27;15.98;;;11.13;;
85559;SDS011;76003;49.038;16.594;2024-01-30T16:42:53;17.00;;;10.13;;